F/V Manathia — FGSL — position and weather

sailwx.info

Track history (hours):
 
Tides and Currents Weather Stations Pressure Air Temp Water Temp Dewpoint Dewpoint Depression Visibility Wind Speed Wind Dir Waves Ship Positions

F/V Manathia

Last reported at 2015-Jul-24 02:33 UTC. Time now 2015-Jul-30 00:07 UTC.
Position N 47°45' W 004°23'.

Length 16 m.

Type: Fishing. MMSI: 228258000.

Date/timePositionNaut miles runAvg speedWind from/ knotsBaromVisibWave heightAir tempDewpointWater temp
2015-Jul-24 02:33N 47°45' W 004°23'  
2015-Jul-21 14:24N 47°47' W 004°17'21 5.4
2015-Jul-21 10:31N 47°42' W 004°47'4 1.7
2015-Jul-21 08:10N 47°41' W 004°53'2 3.0
2015-Jul-21 07:33N 47°40' W 004°50'1 0.6
2015-Jul-21 05:29N 47°42' W 004°51'3 2.8
2015-Jul-21 04:13N 47°40' W 004°46'20 1.4
2015-Jul-20 14:21N 47°47' W 004°18'7 9.0
2015-Jul-20 13:33N 47°40' W 004°21'6 5.3
2015-Jul-20 12:29N 47°34' W 004°22'2 1.8
2015-Jul-20 11:07N 47°33' W 004°25'2 2.8
2015-Jul-20 10:32N 47°32' W 004°26'0 0.0
2015-Jul-20 05:16N 47°32' W 004°26'  
2015-Jul-16 14:07N 47°45' W 004°19'13 2.2
2015-Jul-16 08:09N 47°32' W 004°26'2 3.2
2015-Jul-16 07:33N 47°32' W 004°24'1 1.0
2015-Jul-16 06:17N 47°33' W 004°25'2 2.4
2015-Jul-16 05:26N 47°33' W 004°22'3 3.0
2015-Jul-16 04:33N 47°31' W 004°24'17 1.2
2015-Jul-15 14:28N 47°47' W 004°17'8 8.6
2015-Jul-15 13:30N 47°39' W 004°20'6 4.3
2015-Jul-15 12:12N 47°34' W 004°22'3 0.7
2015-Jul-15 07:32N 47°32' W 004°26'2 1.9
2015-Jul-15 06:33N 47°31' W 004°23'1 0.3
2015-Jul-15 04:18N 47°32' W 004°23'16 1.9
2015-Jul-14 19:28N 47°48' W 004°17'8 8.3
2015-Jul-14 18:33N 47°41' W 004°21'9 8.7
2015-Jul-14 17:33N 47°32' W 004°25'2 1.7
2015-Jul-14 16:33N 47°31' W 004°23'13 2.5
2015-Jul-14 11:22N 47°39' W 004°39'3 2.4
2015-Jul-14 10:17N 47°37' W 004°42'5 1.8
2015-Jul-14 07:28N 47°38' W 004°49'2 2.7
2015-Jul-14 06:33N 47°36' W 004°47'3 3.2
2015-Jul-14 05:33N 47°35' W 004°42'3 3.2
2015-Jul-14 04:33N 47°35' W 004°37'  
Track history (hours):
 
Tides and Currents Weather Stations Pressure Air Temp Water Temp Dewpoint Dewpoint Depression Visibility Wind Speed Wind Dir Waves Ship Positions

F/V Manathia

Last reported at 2015-Jul-24 02:33 UTC. Time now 2015-Jul-30 00:07 UTC.
Position N 47°45' W 004°23'.

Length 16 m.

Type: Fishing. MMSI: 228258000.

Date/timePositionNaut miles runAvg speedWind from/ knotsBaromVisibWave heightAir tempDewpointWater temp
2015-Jul-24 02:33N 47°45' W 004°23'  
2015-Jul-21 14:24N 47°47' W 004°17'21 5.4
2015-Jul-21 10:31N 47°42' W 004°47'4 1.7
2015-Jul-21 08:10N 47°41' W 004°53'2 3.0
2015-Jul-21 07:33N 47°40' W 004°50'1 0.6
2015-Jul-21 05:29N 47°42' W 004°51'3 2.8
2015-Jul-21 04:13N 47°40' W 004°46'20 1.4
2015-Jul-20 14:21N 47°47' W 004°18'7 9.0
2015-Jul-20 13:33N 47°40' W 004°21'6 5.3
2015-Jul-20 12:29N 47°34' W 004°22'2 1.8
2015-Jul-20 11:07N 47°33' W 004°25'2 2.8
2015-Jul-20 10:32N 47°32' W 004°26'0 0.0
2015-Jul-20 05:16N 47°32' W 004°26'  
2015-Jul-16 14:07N 47°45' W 004°19'13 2.2
2015-Jul-16 08:09N 47°32' W 004°26'2 3.2
2015-Jul-16 07:33N 47°32' W 004°24'1 1.0
2015-Jul-16 06:17N 47°33' W 004°25'2 2.4
2015-Jul-16 05:26N 47°33' W 004°22'3 3.0
2015-Jul-16 04:33N 47°31' W 004°24'17 1.2
2015-Jul-15 14:28N 47°47' W 004°17'8 8.6
2015-Jul-15 13:30N 47°39' W 004°20'6 4.3
2015-Jul-15 12:12N 47°34' W 004°22'3 0.7
2015-Jul-15 07:32N 47°32' W 004°26'2 1.9
2015-Jul-15 06:33N 47°31' W 004°23'1 0.3
2015-Jul-15 04:18N 47°32' W 004°23'16 1.9
2015-Jul-14 19:28N 47°48' W 004°17'8 8.3
2015-Jul-14 18:33N 47°41' W 004°21'9 8.7
2015-Jul-14 17:33N 47°32' W 004°25'2 1.7
2015-Jul-14 16:33N 47°31' W 004°23'13 2.5
2015-Jul-14 11:22N 47°39' W 004°39'3 2.4
2015-Jul-14 10:17N 47°37' W 004°42'5 1.8
2015-Jul-14 07:28N 47°38' W 004°49'2 2.7
2015-Jul-14 06:33N 47°36' W 004°47'3 3.2
2015-Jul-14 05:33N 47°35' W 004°42'3 3.2
2015-Jul-14 04:33N 47°35' W 004°37'  

Dump ship's entire track history